createdAt,value
2022-09-28T00:00:36.279Z,9.51
2022-09-28T00:03:03.971Z,9.40
2022-09-28T00:05:32.740Z,9.48
2022-09-28T00:08:00.418Z,9.41
2022-09-28T00:10:29.456Z,9.27
2022-09-28T00:12:57.110Z,9.23
2022-09-28T00:15:25.483Z,9.29
2022-09-28T00:17:53.135Z,9.18
2022-09-28T00:20:22.195Z,9.30
2022-09-28T00:22:49.864Z,9.48
2022-09-28T00:25:17.791Z,9.68
2022-09-28T00:27:52.114Z,9.53
2022-09-28T00:30:19.842Z,9.51
2022-09-28T00:32:47.495Z,9.68
2022-09-28T00:35:15.308Z,9.59
2022-09-28T00:37:43.163Z,9.86
2022-09-28T00:40:11.033Z,9.91
2022-09-28T00:42:38.713Z,9.98
2022-09-28T00:45:09.962Z,10.08
2022-09-28T00:47:49.830Z,10.10
2022-09-28T00:50:29.862Z,10.12
2022-09-28T00:53:02.395Z,10.03
2022-09-28T00:55:37.533Z,10.14
2022-09-28T00:58:09.197Z,10.09
2022-09-28T01:00:40.585Z,10.11
2022-09-28T01:03:09.263Z,10.00
2022-09-28T01:05:38.432Z,9.96
2022-09-28T01:08:08.128Z,10.02
2022-09-28T01:10:35.893Z,10.07
2022-09-28T01:13:03.658Z,10.01
2022-09-28T01:15:36.861Z,10.00
2022-09-28T01:18:13.604Z,10.16
2022-09-28T01:20:55.781Z,9.97
2022-09-28T01:23:57.402Z,10.01
2022-09-28T01:26:47.714Z,9.99
2022-09-28T01:29:21.155Z,9.93
2022-09-28T01:31:53.834Z,9.94
2022-09-28T01:34:28.403Z,9.87
2022-09-28T01:36:59.076Z,9.87
2022-09-28T01:39:32.321Z,9.94
2022-09-28T01:42:06.461Z,9.93
2022-09-28T01:44:39.774Z,9.83
2022-09-28T01:47:11.372Z,9.94
2022-09-28T01:49:43.749Z,9.71
2022-09-28T01:52:17.051Z,9.76
2022-09-28T01:54:50.367Z,9.83
2022-09-28T01:57:23.879Z,9.82
2022-09-28T02:00:06.091Z,9.79
2022-09-28T02:02:38.588Z,9.75
2022-09-28T02:05:10.129Z,9.72
2022-09-28T02:07:42.928Z,9.57
2022-09-28T02:10:15.961Z,9.60
2022-09-28T02:12:49.552Z,9.48
2022-09-28T02:15:21.664Z,9.41
2022-09-28T02:17:49.786Z,9.37
2022-09-28T02:20:18.092Z,9.37
2022-09-28T02:22:50.727Z,9.15
2022-09-28T02:25:25.615Z,9.34
2022-09-28T02:28:00.271Z,9.26
2022-09-28T02:30:28.460Z,9.19
2022-09-28T02:33:01.007Z,9.29
2022-09-28T02:35:28.752Z,9.22
2022-09-28T02:37:57.049Z,9.23
2022-09-28T02:40:30.040Z,9.28
2022-09-28T02:43:06.358Z,9.08
2022-09-28T02:45:51.416Z,8.96
2022-09-28T02:49:00.197Z,9.32
2022-09-28T02:51:28.496Z,9.19
2022-09-28T02:54:18.957Z,9.23
2022-09-28T02:56:57.542Z,9.24
2022-09-28T02:59:41.460Z,9.20
2022-09-28T03:02:20.120Z,9.33
2022-09-28T03:05:03.887Z,9.32
2022-09-28T03:07:37.525Z,9.30
2022-09-28T03:10:14.327Z,9.21
2022-09-28T03:12:44.259Z,9.33
2022-09-28T03:15:15.448Z,9.23
2022-09-28T03:17:43.125Z,9.26
2022-09-28T03:20:11.668Z,9.22
2022-09-28T03:22:39.382Z,9.30
2022-09-28T03:25:08.788Z,9.32
2022-09-28T03:27:36.525Z,9.22
2022-09-28T03:30:04.733Z,9.14
2022-09-28T03:32:33.974Z,9.16
2022-09-28T03:35:01.680Z,9.22
2022-09-28T03:37:29.726Z,9.19
2022-09-28T03:39:57.472Z,9.22
2022-09-28T03:42:25.219Z,9.30
2022-09-28T03:44:52.944Z,9.21
2022-09-28T03:47:21.392Z,9.19
2022-09-28T03:49:50.437Z,9.32
2022-09-28T03:52:18.151Z,9.22
2022-09-28T03:54:49.260Z,9.27
2022-09-28T03:57:17.151Z,9.25
2022-09-28T03:59:44.776Z,9.32
2022-09-28T04:02:12.591Z,9.28
2022-09-28T04:04:40.345Z,9.30
2022-09-28T04:07:09.632Z,9.25
2022-09-28T04:09:37.285Z,9.29
2022-09-28T04:12:05.211Z,9.35
2022-09-28T04:14:32.869Z,9.38
2022-09-28T04:17:00.519Z,9.37
2022-09-28T04:19:28.194Z,9.42
2022-09-28T04:21:55.842Z,9.33
2022-09-28T04:24:24.896Z,9.36
2022-09-28T04:26:52.560Z,9.34
2022-09-28T04:29:19.879Z,9.37
2022-09-28T04:31:49.628Z,9.36
2022-09-28T04:34:19.627Z,9.40
2022-09-28T04:36:48.259Z,9.47
2022-09-28T04:39:19.294Z,9.40
2022-09-28T04:41:50.236Z,9.41
2022-09-28T04:44:17.935Z,9.46
2022-09-28T04:46:45.594Z,9.50
2022-09-28T04:49:13.617Z,9.49
2022-09-28T04:51:41.313Z,9.50
2022-09-28T04:54:09.112Z,9.53
2022-09-28T04:56:36.939Z,9.55
2022-09-28T04:59:06.156Z,9.57
2022-09-28T05:01:33.941Z,9.48
2022-09-28T05:04:01.983Z,9.45
2022-09-28T05:06:30.735Z,9.53
2022-09-28T05:08:58.442Z,9.55
2022-09-28T05:11:26.137Z,9.52
2022-09-28T05:13:53.842Z,9.59
2022-09-28T05:16:22.869Z,9.61
2022-09-28T05:18:50.616Z,9.62
2022-09-28T05:21:20.069Z,9.61
2022-09-28T05:23:48.657Z,9.65
2022-09-28T05:26:16.367Z,9.70
2022-09-28T05:28:44.607Z,9.67
2022-09-28T05:31:12.295Z,9.67
2022-09-28T05:33:41.609Z,9.72
2022-09-28T05:36:10.841Z,9.78
2022-09-28T05:38:38.763Z,9.75
2022-09-28T05:41:07.082Z,9.73
2022-09-28T05:43:35.236Z,9.77
2022-09-28T05:46:02.966Z,9.77
2022-09-28T05:48:30.730Z,9.81
2022-09-28T05:50:59.866Z,9.82
2022-09-28T05:53:27.527Z,9.89
2022-09-28T05:55:58.799Z,9.93
2022-09-28T05:58:26.438Z,9.94
2022-09-28T06:00:55.932Z,9.92
2022-09-28T06:03:24.171Z,9.97
2022-09-28T06:05:52.004Z,9.97
2022-09-28T06:08:21.216Z,9.86
2022-09-28T06:10:48.992Z,10.04
2022-09-28T06:13:16.661Z,10.06
2022-09-28T06:15:44.823Z,10.11
2022-09-28T06:18:15.210Z,10.12
2022-09-28T06:20:43.412Z,10.08
2022-09-28T06:23:11.538Z,10.10
2022-09-28T06:25:40.896Z,10.11
2022-09-28T06:28:11.344Z,10.12
2022-09-28T06:30:39.905Z,10.12
2022-09-28T06:33:09.367Z,10.18
2022-09-28T06:35:37.046Z,10.17
2022-09-28T06:38:05.369Z,10.21
2022-09-28T06:40:33.400Z,10.23
2022-09-28T06:43:04.764Z,10.25
2022-09-28T06:45:32.453Z,10.24
2022-09-28T06:48:02.009Z,10.23
2022-09-28T06:50:32.215Z,10.20
2022-09-28T06:53:00.860Z,10.26
2022-09-28T06:55:29.232Z,10.24
2022-09-28T06:57:59.669Z,10.23
2022-09-28T07:00:29.363Z,10.22
2022-09-28T07:02:57.018Z,10.25
2022-09-28T07:05:26.929Z,10.29
2022-09-28T07:07:56.206Z,10.34
2022-09-28T07:10:24.668Z,10.37
2022-09-28T07:12:53.099Z,10.38
2022-09-28T07:15:21.304Z,10.42
2022-09-28T07:18:00.618Z,10.44
2022-09-28T07:20:30.741Z,10.42
2022-09-28T07:23:12.568Z,10.44
2022-09-28T07:25:45.643Z,10.46
2022-09-28T07:28:13.423Z,10.51
2022-09-28T07:30:42.252Z,10.56
2022-09-28T07:33:14.486Z,10.47
2022-09-28T07:35:42.984Z,10.57
2022-09-28T07:38:11.981Z,10.62
2022-09-28T07:40:57.353Z,10.64
2022-09-28T07:43:25.092Z,10.64
2022-09-28T07:45:54.934Z,10.66
2022-09-28T07:48:24.385Z,10.70
2022-09-28T07:50:53.418Z,10.72
2022-09-28T07:53:21.930Z,10.68
2022-09-28T07:55:52.807Z,10.75
2022-09-28T07:58:20.711Z,10.73
2022-09-28T08:00:49.415Z,10.78
2022-09-28T08:03:17.356Z,10.84
2022-09-28T08:05:47.422Z,10.78
2022-09-28T08:08:15.328Z,10.78
2022-09-28T08:10:46.896Z,10.72
2022-09-28T08:13:16.311Z,10.87
2022-09-28T08:15:44.079Z,11.14
2022-09-28T08:18:11.911Z,11.32
2022-09-28T08:20:57.030Z,11.14
2022-09-28T08:23:26.158Z,11.24
2022-09-28T08:25:56.966Z,11.17
2022-09-28T08:28:25.818Z,11.15
2022-09-28T08:30:54.279Z,11.07
2022-09-28T08:33:22.585Z,11.10
2022-09-28T08:35:57.444Z,11.16
2022-09-28T08:38:27.290Z,11.09
2022-09-28T08:41:05.273Z,11.15
2022-09-28T08:43:54.024Z,11.09
2022-09-28T08:46:27.171Z,11.14
2022-09-28T08:49:23.775Z,11.13
2022-09-28T08:51:53.902Z,11.14
2022-09-28T08:54:31.667Z,11.18
2022-09-28T08:57:04.527Z,11.38
2022-09-28T08:59:43.031Z,11.53
2022-09-28T09:02:16.580Z,11.46
2022-09-28T09:04:44.851Z,11.70
2022-09-28T09:07:27.385Z,11.79
2022-09-28T09:10:08.118Z,11.64
2022-09-28T09:12:48.429Z,11.51
2022-09-28T09:15:47.721Z,11.50
2022-09-28T09:18:27.199Z,11.61
2022-09-28T09:20:57.522Z,11.55
2022-09-28T09:23:36.378Z,11.50
2022-09-28T09:26:21.602Z,11.54
2022-09-28T09:29:04.016Z,11.66
2022-09-28T09:31:46.271Z,11.77
2022-09-28T09:34:31.563Z,11.86
2022-09-28T09:37:17.688Z,12.01
2022-09-28T09:40:00.374Z,12.14
2022-09-28T09:42:48.547Z,12.11
2022-09-28T09:45:29.278Z,12.22
2022-09-28T09:48:02.238Z,12.13
2022-09-28T09:50:33.165Z,11.95
2022-09-28T09:53:06.493Z,12.21
2022-09-28T09:55:40.879Z,12.47
2022-09-28T09:58:16.039Z,12.64
2022-09-28T10:00:46.217Z,12.68
2022-09-28T10:03:22.060Z,12.67
2022-09-28T10:05:56.383Z,12.78
2022-09-28T10:08:26.300Z,12.73
2022-09-28T10:10:57.768Z,12.64
2022-09-28T10:13:26.848Z,12.43
2022-09-28T10:15:55.444Z,12.41
2022-09-28T10:18:23.269Z,12.42
2022-09-28T10:20:50.987Z,12.65
2022-09-28T10:23:23.863Z,12.56
2022-09-28T10:25:53.501Z,12.44
2022-09-28T10:28:34.842Z,12.54
2022-09-28T10:31:37.413Z,12.45
2022-09-28T10:34:06.179Z,12.57
2022-09-28T10:36:38.596Z,12.63
2022-09-28T10:39:07.061Z,12.66
2022-09-28T10:41:34.950Z,12.33
2022-09-28T10:44:08.792Z,12.71
2022-09-28T10:46:39.454Z,12.35
2022-09-28T10:49:14.806Z,12.55
2022-09-28T10:51:44.124Z,12.34
2022-09-28T10:54:16.875Z,12.49
2022-09-28T10:56:45.578Z,13.02
2022-09-28T10:59:38.947Z,12.88
2022-09-28T11:02:20.165Z,13.00
2022-09-28T11:04:54.312Z,12.82
2022-09-28T11:07:25.203Z,12.83
2022-09-28T11:09:54.558Z,12.70
2022-09-28T11:12:24.333Z,12.78
2022-09-28T11:15:00.004Z,12.66
2022-09-28T11:17:30.356Z,12.40
2022-09-28T11:20:00.460Z,12.01
2022-09-28T11:22:41.688Z,12.31
2022-09-28T11:25:20.285Z,12.11
2022-09-28T11:27:58.625Z,12.16
2022-09-28T11:30:32.921Z,12.39
2022-09-28T11:33:04.888Z,12.29
2022-09-28T11:35:45.294Z,12.30
2022-09-28T11:38:31.746Z,12.33
2022-09-28T11:41:10.445Z,12.22
2022-09-28T11:43:52.844Z,12.18
2022-09-28T11:46:32.690Z,12.44
2022-09-28T11:49:08.971Z,11.88
2022-09-28T11:51:41.029Z,11.88
2022-09-28T11:54:15.867Z,11.98
2022-09-28T11:56:46.446Z,11.84
2022-09-28T11:59:19.850Z,11.82
2022-09-28T12:01:54.343Z,11.95
2022-09-28T12:04:27.466Z,11.81
2022-09-28T12:06:59.355Z,11.82
2022-09-28T12:09:37.042Z,11.92
2022-09-28T12:12:15.572Z,12.02
2022-09-28T12:14:43.614Z,11.87
2022-09-28T12:17:22.474Z,11.83
2022-09-28T12:19:55.301Z,12.03
2022-09-28T12:22:31.287Z,11.93
2022-09-28T12:24:59.712Z,11.79
2022-09-28T12:27:33.744Z,11.95
2022-09-28T12:30:06.648Z,11.66
2022-09-28T12:32:42.375Z,12.02
2022-09-28T12:35:16.025Z,11.88
2022-09-28T12:38:08.901Z,12.09
2022-09-28T12:40:42.284Z,12.05
2022-09-28T12:43:33.391Z,12.11
2022-09-28T12:46:21.647Z,11.84
2022-09-28T12:50:01.846Z,11.61
2022-09-28T12:52:10.719Z,11.52
2022-09-28T12:55:08.820Z,11.50
2022-09-28T12:57:48.846Z,11.12
2022-09-28T13:00:22.168Z,11.32
2022-09-28T13:03:09.320Z,11.26
2022-09-28T13:06:18.526Z,11.46
2022-09-28T13:08:57.607Z,11.07
2022-09-28T13:11:34.922Z,11.11
2022-09-28T13:14:25.319Z,11.00
2022-09-28T13:17:00.781Z,10.90
2022-09-28T13:19:38.523Z,10.75
2022-09-28T13:22:22.973Z,10.67
2022-09-28T13:24:56.175Z,10.78
2022-09-28T13:27:32.389Z,10.60
2022-09-28T13:30:03.009Z,10.56
2022-09-28T13:32:33.839Z,10.85
2022-09-28T13:35:02.765Z,10.67
2022-09-28T13:37:30.589Z,10.33
2022-09-28T13:40:05.659Z,10.42
2022-09-28T13:42:53.462Z,10.61
2022-09-28T13:45:51.527Z,10.63
2022-09-28T13:48:23.483Z,10.69
2022-09-28T13:51:17.267Z,10.29
2022-09-28T13:54:06.782Z,10.13
2022-09-28T13:56:44.641Z,10.22
2022-09-28T13:59:20.523Z,10.32
2022-09-28T14:01:55.762Z,9.87
2022-09-28T14:04:25.320Z,9.95
2022-09-28T14:06:57.429Z,10.18
2022-09-28T14:09:40.713Z,10.25
2022-09-28T14:12:32.279Z,10.11
2022-09-28T14:15:00.635Z,9.95
2022-09-28T14:17:59.306Z,10.10
2022-09-28T14:20:31.322Z,9.85
2022-09-28T14:23:26.778Z,9.81
2022-09-28T14:26:15.846Z,9.77
2022-09-28T14:28:57.512Z,20.70
2022-09-28T14:31:27.499Z,21.67
2022-09-28T14:33:58.676Z,11.61
2022-09-28T14:36:46.767Z,10.64
2022-09-28T14:39:40.753Z,10.43
2022-09-28T14:42:15.699Z,10.12
2022-09-28T14:45:35.694Z,10.35
2022-09-28T14:48:16.192Z,10.29
2022-09-28T14:50:43.879Z,10.33
2022-09-28T14:53:13.430Z,10.34
2022-09-28T14:55:51.202Z,10.22
2022-09-28T14:58:22.592Z,10.10
2022-09-28T15:01:02.098Z,10.22
2022-09-28T15:03:33.994Z,10.28
2022-09-28T15:06:02.763Z,10.32
2022-09-28T15:08:38.427Z,10.38
2022-09-28T15:11:07.252Z,10.47
2022-09-28T15:13:35.262Z,10.35
2022-09-28T15:16:09.976Z,10.36
2022-09-28T15:19:01.120Z,10.14
2022-09-28T15:21:35.672Z,10.20
2022-09-28T15:24:03.342Z,10.33
2022-09-28T15:26:32.862Z,10.26
2022-09-28T15:29:03.120Z,10.17
2022-09-28T15:31:36.587Z,10.09
2022-09-28T15:34:21.942Z,9.98
2022-09-28T15:36:49.945Z,10.02
2022-09-28T15:39:22.144Z,10.02
2022-09-28T15:41:51.183Z,9.94
2022-09-28T15:44:30.185Z,9.70
2022-09-28T15:47:15.075Z,9.74
2022-09-28T15:49:47.631Z,9.67
2022-09-28T15:52:41.767Z,9.81
2022-09-28T15:55:21.711Z,9.79
2022-09-28T15:57:49.895Z,9.79
2022-09-28T16:00:28.772Z,9.59
2022-09-28T16:03:03.673Z,9.63
2022-09-28T16:05:36.166Z,9.61
2022-09-28T16:08:05.174Z,9.69
2022-09-28T16:10:35.078Z,9.80
2022-09-28T16:13:17.796Z,9.62
2022-09-28T16:15:46.013Z,9.71
2022-09-28T16:18:22.102Z,9.53
2022-09-28T16:20:52.306Z,9.56
2022-09-28T16:23:33.249Z,9.51
2022-09-28T16:26:03.791Z,9.42
2022-09-28T16:28:52.093Z,9.47
2022-09-28T16:31:29.921Z,9.46
2022-09-28T16:34:01.784Z,9.34
2022-09-28T16:36:39.784Z,9.32
2022-09-28T16:39:07.640Z,9.37
2022-09-28T16:41:35.599Z,9.24
2022-09-28T16:44:03.710Z,9.17
2022-09-28T16:46:37.135Z,9.24
2022-09-28T16:49:07.718Z,9.29
2022-09-28T16:51:35.459Z,9.24
2022-09-28T16:54:32.685Z,9.26
2022-09-28T16:57:01.244Z,9.15
2022-09-28T16:59:29.431Z,9.20
2022-09-28T17:01:57.653Z,9.08
2022-09-28T17:04:27.152Z,9.05
2022-09-28T17:06:58.321Z,9.08
2022-09-28T17:09:26.020Z,9.24
2022-09-28T17:11:57.003Z,9.18
2022-09-28T17:14:25.302Z,9.20
2022-09-28T17:17:13.707Z,9.22
2022-09-28T17:19:43.378Z,9.17
2022-09-28T17:22:11.057Z,9.03
2022-09-28T17:24:38.911Z,8.98
2022-09-28T17:27:07.868Z,9.10
2022-09-28T17:29:35.500Z,9.10
2022-09-28T17:32:04.975Z,9.25
2022-09-28T17:34:32.652Z,9.11
2022-09-28T17:37:01.716Z,9.02
2022-09-28T17:39:31.600Z,9.15
2022-09-28T17:41:59.480Z,9.13
2022-09-28T17:44:27.154Z,9.13
2022-09-28T17:46:54.872Z,9.11
2022-09-28T17:49:22.538Z,9.24
2022-09-28T17:51:52.776Z,9.21
2022-09-28T17:54:22.846Z,9.26
2022-09-28T17:56:50.663Z,9.36
2022-09-28T17:59:19.547Z,9.41
2022-09-28T18:01:48.297Z,9.43
2022-09-28T18:04:39.837Z,9.38
2022-09-28T18:07:04.715Z,9.40
2022-09-28T18:09:33.746Z,9.40
2022-09-28T18:12:04.935Z,9.19
2022-09-28T18:14:32.689Z,9.28
2022-09-28T18:17:00.394Z,9.40
2022-09-28T18:19:31.898Z,9.35
2022-09-28T18:21:59.788Z,9.35
2022-09-28T18:24:27.470Z,9.34
2022-09-28T18:26:56.515Z,9.23
2022-09-28T18:29:24.259Z,9.32
2022-09-28T18:31:52.063Z,9.34
2022-09-28T18:34:19.935Z,9.41
2022-09-28T18:36:48.294Z,9.46
2022-09-28T18:39:16.034Z,9.35
2022-09-28T18:41:43.999Z,9.27
2022-09-28T18:44:13.056Z,9.34
2022-09-28T18:46:43.531Z,9.27
2022-09-28T18:49:11.461Z,9.29
2022-09-28T18:51:39.497Z,9.38
2022-09-28T18:54:07.698Z,9.30
2022-09-28T18:56:37.985Z,9.36
2022-09-28T18:59:09.930Z,9.39
2022-09-28T19:01:41.790Z,9.41
2022-09-28T19:04:11.844Z,9.34
2022-09-28T19:06:41.487Z,9.46
2022-09-28T19:09:10.013Z,9.44
2022-09-28T19:11:37.968Z,9.48
2022-09-28T19:14:05.654Z,9.41
2022-09-28T19:16:34.601Z,9.37
2022-09-28T19:19:03.765Z,9.40
2022-09-28T19:21:31.760Z,9.38
2022-09-28T19:24:02.455Z,9.42
2022-09-28T19:26:31.265Z,9.33
2022-09-28T19:28:59.816Z,9.35
2022-09-28T19:31:28.038Z,9.36
2022-09-28T19:33:55.720Z,9.41
2022-09-28T19:36:28.346Z,9.20
2022-09-28T19:38:57.243Z,9.34
2022-09-28T19:41:44.376Z,9.31
2022-09-28T19:44:24.307Z,9.40
2022-09-28T19:46:54.438Z,9.38
2022-09-28T19:49:23.696Z,9.42
2022-09-28T19:52:13.856Z,9.14
2022-09-28T19:54:44.480Z,9.29
2022-09-28T19:57:12.980Z,9.37
2022-09-28T19:59:40.811Z,9.32
2022-09-28T20:02:11.213Z,9.32
2022-09-28T20:04:38.969Z,9.28
2022-09-28T20:07:08.087Z,9.30
2022-09-28T20:09:35.814Z,9.19
2022-09-28T20:12:03.488Z,9.24
2022-09-28T20:14:35.261Z,9.18
2022-09-28T20:17:05.892Z,9.16
2022-09-28T20:19:33.680Z,9.18
2022-09-28T20:22:02.775Z,9.18
2022-09-28T20:24:32.596Z,9.25
2022-09-28T20:27:01.156Z,9.28
2022-09-28T20:29:29.216Z,9.17
2022-09-28T20:31:57.183Z,9.26
2022-09-28T20:34:24.871Z,9.21
2022-09-28T20:36:52.625Z,9.24
2022-09-28T20:39:20.763Z,9.20
2022-09-28T20:41:49.940Z,9.14
2022-09-28T20:44:17.841Z,9.12
2022-09-28T20:46:45.726Z,9.22
2022-09-28T20:49:13.578Z,9.20
2022-09-28T20:51:41.675Z,9.14
2022-09-28T20:54:09.541Z,9.17
2022-09-28T20:56:38.810Z,9.21
2022-09-28T20:59:09.144Z,9.18
2022-09-28T21:01:36.990Z,9.17
2022-09-28T21:04:06.574Z,9.13
2022-09-28T21:06:36.824Z,8.91
2022-09-28T21:09:06.063Z,8.90
2022-09-28T21:11:35.516Z,8.98
2022-09-28T21:14:06.020Z,9.02
2022-09-28T21:16:36.206Z,8.99
2022-09-28T21:19:04.687Z,8.86
2022-09-28T21:21:32.492Z,8.97
2022-09-28T21:24:00.255Z,9.00
2022-09-28T21:26:29.565Z,8.93
2022-09-28T21:28:58.856Z,8.92
2022-09-28T21:31:29.566Z,8.96
2022-09-28T21:33:59.426Z,8.97
2022-09-28T21:36:27.152Z,8.97
2022-09-28T21:38:55.481Z,8.92
2022-09-28T21:41:23.607Z,8.88
2022-09-28T21:43:51.515Z,8.92
2022-09-28T21:46:19.683Z,8.85
2022-09-28T21:48:47.494Z,9.03
2022-09-28T21:51:16.711Z,9.03
2022-09-28T21:53:44.436Z,9.08
2022-09-28T21:56:13.955Z,8.88
2022-09-28T21:58:41.942Z,9.13
2022-09-28T22:01:12.118Z,9.06
2022-09-28T22:03:39.929Z,9.11
2022-09-28T22:06:08.509Z,9.12
2022-09-28T22:08:38.542Z,9.13
2022-09-28T22:11:08.489Z,9.09
2022-09-28T22:13:40.240Z,8.89
2022-09-28T22:16:08.668Z,9.00
2022-09-28T22:18:36.493Z,8.94
2022-09-28T22:21:07.359Z,8.81
2022-09-28T22:23:37.613Z,8.80
2022-09-28T22:26:08.220Z,8.72
2022-09-28T22:28:36.246Z,8.79
2022-09-28T22:31:04.130Z,8.70
2022-09-28T22:33:31.901Z,8.69
2022-09-28T22:35:59.568Z,8.63
2022-09-28T22:38:28.068Z,8.52
2022-09-28T22:40:58.269Z,8.52
2022-09-28T22:43:28.335Z,8.48
2022-09-28T22:46:03.312Z,8.54
2022-09-28T22:48:31.452Z,8.55
2022-09-28T22:50:59.591Z,8.35
2022-09-28T22:53:28.325Z,8.55
2022-09-28T22:55:58.371Z,8.60
2022-09-28T22:58:26.117Z,8.49
2022-09-28T23:00:54.067Z,8.47
2022-09-28T23:03:21.737Z,8.53
2022-09-28T23:05:53.946Z,8.50
2022-09-28T23:08:21.852Z,8.47
2022-09-28T23:10:49.775Z,8.48
2022-09-28T23:13:19.172Z,8.52
2022-09-28T23:15:56.749Z,8.61
2022-09-28T23:18:24.665Z,8.75
2022-09-28T23:20:55.922Z,8.57
2022-09-28T23:23:24.002Z,8.63
2022-09-28T23:25:52.797Z,8.67
2022-09-28T23:28:23.553Z,8.70
2022-09-28T23:30:52.100Z,8.61
2022-09-28T23:33:21.299Z,8.47
2022-09-28T23:35:49.377Z,8.60
2022-09-28T23:38:18.839Z,8.54
2022-09-28T23:40:47.249Z,8.66
2022-09-28T23:43:15.386Z,8.89
2022-09-28T23:45:45.504Z,8.82
2022-09-28T23:48:15.192Z,8.94
2022-09-28T23:50:43.511Z,8.90
2022-09-28T23:53:11.957Z,8.85
2022-09-28T23:55:39.648Z,8.82
2022-09-28T23:58:07.535Z,8.83
